Time;durP1;ratioP1;P1;durP2;ratioP2;P2;SDS_P1;SDS_P2;PMS_P1;PMS_P2;Temp;Humidity;BMP_temperature;BMP_pressure;BME280_temperature;BME280_humidity;BME280_pressure;Samples;Min_cycle;Max_cycle;Signal;HPM_P1;HPM_P2
2021/04/22 00:01:27;;;;;;;3.55;2.05;;;14.00;84.90;;;;;;5031935;28;20207;-70
2021/04/22 00:03:54;;;;;;;4.90;1.83;;;13.90;84.80;;;;;;5039937;28;20199;-69
2021/04/22 00:06:20;;;;;;;5.50;1.90;;;13.90;84.80;;;;;;5034548;28;20627;-69
2021/04/22 00:08:46;;;;;;;3.55;1.50;;;13.90;85.00;;;;;;5036968;28;20195;-69
2021/04/22 00:11:12;;;;;;;6.75;1.90;;;13.90;85.00;;;;;;5032833;28;20543;-69
2021/04/22 00:13:38;;;;;;;3.28;1.50;;;13.80;85.00;;;;;;5038113;28;20195;-69
2021/04/22 00:16:05;;;;;;;5.78;1.60;;;13.80;85.20;;;;;;5039533;28;20203;-69
2021/04/22 00:18:32;;;;;;;2.78;1.63;;;13.80;85.10;;;;;;5040651;28;20198;-69
2021/04/22 00:20:59;;;;;;;3.35;1.67;;;13.80;85.20;;;;;;5049209;28;20280;-69
2021/04/22 00:23:25;;;;;;;5.07;1.60;;;13.70;85.00;;;;;;5039760;28;20243;-69
2021/04/22 00:25:52;;;;;;;5.00;2.00;;;13.70;85.00;;;;;;5049253;28;20277;-69
2021/04/22 00:28:19;;;;;;;4.47;2.10;;;13.70;85.10;;;;;;5041192;28;20721;-70
2021/04/22 00:30:46;;;;;;;6.38;1.70;;;13.70;85.40;;;;;;5033672;28;20223;-70
2021/04/22 00:33:14;;;;;;;3.92;1.70;;;13.70;85.30;;;;;;5044430;28;20219;-70
2021/04/22 00:35:42;;;;;;;9.18;2.35;;;13.60;85.20;;;;;;5036536;28;20709;-70
2021/04/22 00:38:08;;;;;;;7.03;2.97;;;13.60;85.10;;;;;;5048624;28;20194;-70
2021/04/22 00:40:36;;;;;;;6.07;3.10;;;13.60;85.20;;;;;;5050346;28;20213;-70
2021/04/22 00:43:04;;;;;;;3.15;1.70;;;13.60;85.30;;;;;;5039495;28;20195;-70
2021/04/22 00:45:31;;;;;;;5.65;1.83;;;13.50;85.30;;;;;;5048258;28;20218;-70
2021/04/22 00:47:57;;;;;;;3.28;1.83;;;13.50;85.40;;;;;;5043788;28;20671;-70
2021/04/22 00:50:26;;;;;;;4.32;2.60;;;13.50;85.40;;;;;;5029474;28;20204;-70
2021/04/22 00:52:54;;;;;;;4.00;1.75;;;13.50;85.70;;;;;;5038722;28;20773;-70
2021/04/22 00:55:20;;;;;;;6.03;2.65;;;13.40;85.60;;;;;;5029856;28;20310;-71
2021/04/22 00:57:46;;;;;;;5.55;1.73;;;13.40;85.60;;;;;;5036558;28;20204;-70
2021/04/22 01:00:17;;;;;;;4.90;1.83;;;13.40;85.60;;;;;;5048678;28;20590;-70
2021/04/22 01:02:43;;;;;;;4.93;2.22;;;13.40;85.80;;;;;;5044768;28;20200;-70
2021/04/22 01:05:11;;;;;;;4.65;2.70;;;13.40;85.90;;;;;;5033546;28;20213;-70
2021/04/22 01:07:39;;;;;;;6.25;1.80;;;13.30;85.90;;;;;;5049627;28;20198;-70
2021/04/22 01:10:08;;;;;;;4.75;1.95;;;13.30;85.90;;;;;;5029917;28;20211;-69
2021/04/22 01:12:35;;;;;;;6.43;2.22;;;13.30;86.00;;;;;;5037300;28;20224;-70
2021/04/22 01:15:01;;;;;;;13.02;2.50;;;13.30;85.80;;;;;;5034114;28;20242;-69
2021/04/22 01:17:27;;;;;;;4.35;1.98;;;13.30;86.20;;;;;;5038297;28;20203;-69
2021/04/22 01:19:54;;;;;;;3.22;1.80;;;13.20;86.00;;;;;;5051881;28;20198;-70
2021/04/22 01:22:21;;;;;;;12.07;3.38;;;13.20;86.10;;;;;;5037812;28;20203;-70
2021/04/22 01:24:48;;;;;;;6.25;2.15;;;13.20;86.20;;;;;;5045559;28;20328;-70
2021/04/22 01:27:14;;;;;;;5.68;3.30;;;13.20;86.20;;;;;;5053158;28;20552;-70
2021/04/22 01:29:40;;;;;;;3.90;1.92;;;13.10;86.20;;;;;;5047319;28;20202;-69
2021/04/22 01:32:07;;;;;;;3.88;2.30;;;13.10;86.10;;;;;;5036511;28;20203;-70
2021/04/22 01:34:33;;;;;;;5.68;1.98;;;13.10;86.30;;;;;;5048304;28;20584;-70
2021/04/22 01:36:59;;;;;;;5.72;1.98;;;13.10;86.30;;;;;;5047098;28;20194;-70
2021/04/22 01:39:26;;;;;;;5.80;2.50;;;13.10;86.10;;;;;;5052895;28;20190;-69
2021/04/22 01:41:53;;;;;;;5.10;2.20;;;13.00;86.10;;;;;;5049742;28;20202;-69
2021/04/22 01:44:19;;;;;;;2.33;1.85;;;13.00;86.20;;;;;;5038234;28;20578;-68
2021/04/22 01:46:45;;;;;;;7.05;2.17;;;13.00;86.30;;;;;;5051433;28;20203;-69
2021/04/22 01:49:11;;;;;;;8.10;2.15;;;13.00;86.30;;;;;;5040741;28;20671;-70
2021/04/22 01:51:37;;;;;;;4.18;1.75;;;13.00;86.30;;;;;;5044576;28;20634;-70
2021/04/22 01:54:04;;;;;;;3.80;2.03;;;13.00;86.40;;;;;;5032732;28;20215;-70
2021/04/22 01:56:31;;;;;;;7.50;2.17;;;12.90;86.20;;;;;;5045324;28;20199;-70
2021/04/22 01:58:58;;;;;;;7.20;2.13;;;12.90;86.40;;;;;;5043488;28;20214;-70
2021/04/22 02:01:24;;;;;;;4.90;2.15;;;12.90;86.40;;;;;;5032444;28;20203;-70
2021/04/22 02:03:50;;;;;;;4.30;2.15;;;12.90;86.40;;;;;;5048165;28;20686;-70
2021/04/22 02:06:17;;;;;;;8.35;2.20;;;12.80;86.40;;;;;;5052440;28;20731;-70
2021/04/22 02:08:43;;;;;;;6.40;2.47;;;12.80;86.40;;;;;;5045856;28;20192;-70
2021/04/22 02:11:09;;;;;;;9.70;2.63;;;12.80;87.20;;;;;;5039178;28;20195;-70
2021/04/22 02:13:36;;;;;;;5.38;2.40;;;12.80;86.60;;;;;;5036643;28;20557;-70
2021/04/22 02:16:03;;;;;;;7.68;2.55;;;12.80;86.60;;;;;;5050993;28;20195;-71
2021/04/22 02:18:29;;;;;;;9.27;2.25;;;12.70;86.50;;;;;;5046871;28;20199;-71
2021/04/22 02:20:55;;;;;;;2.90;1.60;;;12.70;86.70;;;;;;5051576;28;20650;-71
2021/04/22 02:23:24;;;;;;;5.45;2.22;;;12.70;86.80;;;;;;5050519;28;20663;-71
2021/04/22 02:25:51;;;;;;;4.35;2.38;;;12.60;86.80;;;;;;5047547;28;20227;-71
2021/04/22 02:28:17;;;;;;;5.25;2.50;;;12.60;86.80;;;;;;5037897;28;20687;-71
2021/04/22 02:30:45;;;;;;;7.35;2.40;;;12.60;86.90;;;;;;5032211;28;20199;-70
2021/04/22 02:33:13;;;;;;;6.68;1.98;;;12.60;87.00;;;;;;5031955;28;20541;-70
2021/04/22 02:35:41;;;;;;;4.10;2.15;;;12.60;87.10;;;;;;5031844;28;20253;-70
2021/04/22 02:38:09;;;;;;;3.65;2.17;;;12.60;87.10;;;;;;5040068;28;20199;-71
2021/04/22 02:40:37;;;;;;;5.43;2.92;;;12.50;87.00;;;;;;5051358;28;20195;-70
2021/04/22 02:43:07;;;;;;;7.80;2.40;;;12.50;87.10;;;;;;5045936;28;20210;-70
2021/04/22 02:45:35;;;;;;;5.22;2.28;;;12.50;87.10;;;;;;5031651;28;20671;-70
2021/04/22 02:48:03;;;;;;;6.68;2.65;;;12.50;87.10;;;;;;5040981;28;20199;-70
2021/04/22 02:50:32;;;;;;;5.03;2.05;;;12.50;87.20;;;;;;5038302;28;20198;-69
2021/04/22 02:52:58;;;;;;;5.35;2.05;;;12.50;87.30;;;;;;5040840;28;20207;-71
2021/04/22 02:55:25;;;;;;;8.70;3.00;;;12.40;87.20;;;;;;5036443;28;20249;-69
2021/04/22 02:57:51;;;;;;;6.72;2.00;;;12.40;87.30;;;;;;5036639;28;20191;-70
2021/04/22 03:00:20;;;;;;;3.90;1.70;;;12.40;88.10;;;;;;5051029;28;20198;-71
2021/04/22 03:02:47;;;;;;;8.32;2.17;;;12.40;87.50;;;;;;5050766;28;20211;-70
2021/04/22 03:05:15;;;;;;;3.58;2.10;;;12.30;87.50;;;;;;5049727;28;20215;-69
2021/04/22 03:07:41;;;;;;;7.05;2.10;;;12.30;87.50;;;;;;5050925;28;20207;-70
2021/04/22 03:10:09;;;;;;;6.47;2.53;;;12.30;87.60;;;;;;5051479;28;20203;-70
2021/04/22 03:12:35;;;;;;;3.88;2.53;;;12.30;87.70;;;;;;5049903;28;20213;-70
2021/04/22 03:15:02;;;;;;;3.72;2.13;;;12.20;87.60;;;;;;5042359;28;20195;-70
2021/04/22 03:17:28;;;;;;;3.85;2.70;;;12.30;87.80;;;;;;5051185;28;20218;-71
2021/04/22 03:19:55;;;;;;;2.80;1.83;;;12.30;87.90;;;;;;5051200;28;20202;-70
2021/04/22 03:22:22;;;;;;;7.32;2.38;;;12.20;87.90;;;;;;5049968;28;20248;-71
2021/04/22 03:24:48;;;;;;;3.63;2.50;;;12.20;88.00;;;;;;5040521;28;20218;-70
2021/04/22 03:27:14;;;;;;;7.68;2.80;;;12.20;88.00;;;;;;5050490;28;20261;-72
2021/04/22 03:29:40;;;;;;;10.93;2.80;;;12.20;88.00;;;;;;5050687;28;20210;-70
2021/04/22 03:32:07;;;;;;;4.75;2.20;;;12.20;87.90;;;;;;5043854;28;20200;-70
2021/04/22 03:34:33;;;;;;;6.22;2.05;;;12.20;88.00;;;;;;5034758;28;20245;-70
2021/04/22 03:36:59;;;;;;;5.53;1.90;;;12.10;87.90;;;;;;5030527;28;20191;-71
2021/04/22 03:39:26;;;;;;;8.75;2.58;;;12.10;88.20;;;;;;5030888;28;20195;-70
2021/04/22 03:41:52;;;;;;;7.28;3.53;;;12.10;88.30;;;;;;5049140;28;20658;-70
2021/04/22 03:44:19;;;;;;;6.18;2.55;;;12.10;88.40;;;;;;5043667;28;20203;-69
2021/04/22 03:46:45;;;;;;;7.90;3.05;;;12.10;88.30;;;;;;5030851;28;20203;-69
2021/04/22 03:49:11;;;;;;;7.35;2.63;;;12.10;88.40;;;;;;5030822;28;20544;-70
2021/04/22 03:51:37;;;;;;;7.88;2.55;;;12.10;88.40;;;;;;5042934;28;20234;-70
2021/04/22 03:54:05;;;;;;;4.22;2.58;;;12.00;88.30;;;;;;5047380;28;20215;-69
2021/04/22 03:56:32;;;;;;;8.75;3.15;;;12.00;88.20;;;;;;5048360;28;20191;-69
2021/04/22 03:58:58;;;;;;;6.68;2.35;;;12.00;88.20;;;;;;5049399;28;20203;-69
2021/04/22 04:01:24;;;;;;;6.22;2.22;;;12.00;88.40;;;;;;5048458;28;20205;-69
2021/04/22 04:03:50;;;;;;;3.50;2.30;;;12.00;88.40;;;;;;5049429;28;20203;-70
2021/04/22 04:06:16;;;;;;;8.27;3.40;;;12.00;88.70;;;;;;5050321;28;20237;-70
2021/04/22 04:08:43;;;;;;;5.47;3.13;;;12.00;88.70;;;;;;5050593;28;20198;-70
2021/04/22 04:11:09;;;;;;;6.32;3.10;;;11.90;88.70;;;;;;5033417;28;20210;-71
2021/04/22 04:13:36;;;;;;;4.30;3.28;;;11.90;88.90;;;;;;5043081;28;20598;-71
2021/04/22 04:16:02;;;;;;;7.88;2.78;;;11.90;88.90;;;;;;5049515;28;20195;-71
2021/04/22 04:18:28;;;;;;;6.30;3.22;;;11.90;88.90;;;;;;5043062;28;20207;-71
2021/04/22 04:20:54;;;;;;;5.70;3.22;;;11.90;89.00;;;;;;5041419;28;20516;-70
2021/04/22 04:23:21;;;;;;;7.90;3.80;;;11.80;89.20;;;;;;5050030;28;20202;-70
2021/04/22 04:25:47;;;;;;;4.85;2.45;;;11.80;89.30;;;;;;5050146;28;20229;-71
2021/04/22 04:28:13;;;;;;;7.25;3.38;;;11.80;89.50;;;;;;5048795;28;20222;-70
2021/04/22 04:30:40;;;;;;;6.20;3.58;;;11.80;89.50;;;;;;5038758;28;20235;-70
2021/04/22 04:33:06;;;;;;;5.35;2.72;;;11.80;89.50;;;;;;5029985;28;20195;-70
2021/04/22 04:35:32;;;;;;;7.18;2.83;;;11.80;89.70;;;;;;5042895;28;20261;-70
2021/04/22 04:37:59;;;;;;;8.07;3.00;;;11.80;89.60;;;;;;5050240;28;20203;-71
2021/04/22 04:40:25;;;;;;;5.78;2.88;;;11.80;89.50;;;;;;5044229;28;20199;-71
2021/04/22 04:42:51;;;;;;;5.60;2.95;;;11.80;89.60;;;;;;5049349;28;20202;-70
2021/04/22 04:45:19;;;;;;;7.32;2.88;;;11.70;89.40;;;;;;5050082;28;20281;-70
2021/04/22 04:47:48;;;;;;;8.05;3.00;;;11.70;89.50;;;;;;5048790;28;20234;-70
2021/04/22 04:50:18;;;;;;;8.07;3.63;;;11.70;89.60;;;;;;5042356;28;20200;-70
2021/04/22 04:52:44;;;;;;;3.83;2.58;;;11.70;89.90;;;;;;5034518;28;20208;-70
2021/04/22 04:55:12;;;;;;;6.72;3.25;;;11.70;89.80;;;;;;5038040;28;20191;-70
2021/04/22 04:57:38;;;;;;;6.93;2.80;;;11.70;89.90;;;;;;5053463;28;20199;-70
2021/04/22 05:00:06;;;;;;;4.97;2.90;;;11.70;89.90;;;;;;5049348;28;20206;-70
2021/04/22 05:02:33;;;;;;;6.82;2.88;;;11.70;90.00;;;;;;5052590;28;20205;-70
2021/04/22 05:05:00;;;;;;;5.88;2.47;;;11.60;90.40;;;;;;5053247;28;20207;-70
2021/04/22 05:07:26;;;;;;;5.55;3.15;;;11.60;90.10;;;;;;5047784;28;20192;-70
2021/04/22 05:09:53;;;;;;;3.78;2.30;;;11.60;90.00;;;;;;5033479;28;20192;-70
2021/04/22 05:12:19;;;;;;;7.88;3.38;;;11.60;90.00;;;;;;5033931;28;20195;-70
2021/04/22 05:14:45;;;;;;;13.80;3.97;;;11.60;90.00;;;;;;5053285;28;20217;-70
2021/04/22 05:17:11;;;;;;;6.07;3.80;;;11.60;90.10;;;;;;5051657;28;20203;-70
2021/04/22 05:19:38;;;;;;;6.07;2.40;;;11.60;90.10;;;;;;5050911;28;20256;-70
2021/04/22 05:22:05;;;;;;;3.60;2.65;;;11.60;90.20;;;;;;5053190;28;20214;-70
2021/04/22 05:24:31;;;;;;;5.70;2.58;;;11.60;90.10;;;;;;5048181;28;20772;-70
2021/04/22 05:26:57;;;;;;;5.15;2.78;;;11.60;90.00;;;;;;5038859;28;20223;-71
2021/04/22 05:29:24;;;;;;;7.13;3.08;;;11.60;90.00;;;;;;5033081;28;20200;-71
2021/04/22 05:31:50;;;;;;;7.88;2.97;;;11.60;90.10;;;;;;5052614;28;20191;-70
2021/04/22 05:34:16;;;;;;;7.80;2.67;;;11.50;90.50;;;;;;5051878;28;20199;-70
2021/04/22 05:36:43;;;;;;;7.05;2.75;;;11.50;90.30;;;;;;5052499;28;20198;-71
2021/04/22 05:39:10;;;;;;;5.10;2.75;;;11.60;90.70;;;;;;5052649;28;20203;-70
2021/04/22 05:41:37;;;;;;;4.25;2.58;;;11.60;90.30;;;;;;5052485;28;20191;-70
2021/04/22 05:44:04;;;;;;;5.00;2.65;;;11.50;90.50;;;;;;5041935;28;20199;-71
2021/04/22 05:46:31;;;;;;;7.18;2.83;;;11.40;90.70;;;;;;5032930;28;20215;-70
2021/04/22 05:48:57;;;;;;;6.32;2.65;;;11.50;90.60;;;;;;5046161;28;20233;-70
2021/04/22 05:51:24;;;;;;;5.30;2.50;;;11.40;90.60;;;;;;5036200;28;20562;-70
2021/04/22 05:53:50;;;;;;;5.35;2.78;;;11.40;90.60;;;;;;5037955;28;20198;-70
2021/04/22 05:56:17;;;;;;;6.10;2.88;;;11.40;90.60;;;;;;5047807;28;20191;-69
2021/04/22 05:58:43;;;;;;;3.85;2.28;;;11.40;90.60;;;;;;5052211;28;20281;-69
2021/04/22 06:01:09;;;;;;;6.55;2.42;;;11.40;90.70;;;;;;5051349;28;20597;-69
2021/04/22 06:03:35;;;;;;;6.55;3.17;;;11.40;90.70;;;;;;5051039;28;20252;-69
2021/04/22 06:06:02;;;;;;;8.25;2.95;;;11.40;91.00;;;;;;5044448;28;20214;-70
2021/04/22 06:08:28;;;;;;;3.78;2.15;;;11.40;90.70;;;;;;5051874;28;20195;-70
2021/04/22 06:10:54;;;;;;;5.97;2.67;;;11.40;90.70;;;;;;5052318;28;20651;-70
2021/04/22 06:13:21;;;;;;;4.95;2.45;;;11.40;90.60;;;;;;5051147;28;20199;-70
2021/04/22 06:15:47;;;;;;;8.00;3.05;;;11.40;90.60;;;;;;5040776;28;20192;-70
2021/04/22 06:18:14;;;;;;;11.35;3.00;;;11.40;90.60;;;;;;5042862;28;20572;-70
2021/04/22 06:20:40;;;;;;;4.75;2.75;;;11.50;90.70;;;;;;5051186;28;20286;-70
2021/04/22 06:23:06;;;;;;;7.15;2.60;;;11.40;90.80;;;;;;5052216;28;20199;-70
2021/04/22 06:25:32;;;;;;;5.32;2.55;;;11.40;90.80;;;;;;5044804;28;20257;-69
2021/04/22 06:28:00;;;;;;;5.43;2.45;;;11.50;90.80;;;;;;5052090;28;20261;-70
2021/04/22 06:30:28;;;;;;;6.85;2.97;;;11.40;90.70;;;;;;5052035;28;20258;-69
2021/04/22 06:32:54;;;;;;;8.60;2.70;;;11.40;90.70;;;;;;5042689;28;20532;-70
2021/04/22 06:35:21;;;;;;;5.75;2.63;;;11.40;90.60;;;;;;5031580;28;20199;-71
2021/04/22 06:37:48;;;;;;;5.43;2.50;;;11.40;90.40;;;;;;5044285;28;20195;-71
2021/04/22 06:40:16;;;;;;;3.78;2.80;;;11.50;90.20;;;;;;5051689;28;20277;-71
2021/04/22 06:42:43;;;;;;;8.05;2.90;;;11.40;90.10;;;;;;5050647;28;20248;-71
2021/04/22 06:45:12;;;;;;;4.95;2.42;;;11.40;90.00;;;;;;5033775;28;20219;-70
2021/04/22 06:47:40;;;;;;;5.93;2.25;;;11.40;89.80;;;;;;5033790;28;20199;-70
2021/04/22 06:50:09;;;;;;;3.80;2.67;;;11.50;89.30;;;;;;5048050;28;20249;-70
2021/04/22 06:52:35;;;;;;;5.20;2.30;;;11.50;89.80;;;;;;5048284;28;20195;-70
2021/04/22 06:55:02;;;;;;;5.45;2.42;;;11.50;90.10;;;;;;5047772;28;20211;-70
2021/04/22 06:57:29;;;;;;;6.00;2.42;;;11.50;89.60;;;;;;5040263;28;20226;-70
2021/04/22 06:59:55;;;;;;;7.55;2.10;;;11.50;89.80;;;;;;5031896;28;20207;-70
2021/04/22 07:02:21;;;;;;;5.55;4.05;;;11.50;89.80;;;;;;5039696;28;20191;-70
2021/04/22 07:04:48;;;;;;;4.03;2.80;;;11.50;89.40;;;;;;5050974;28;20214;-70
2021/04/22 07:07:14;;;;;;;6.28;2.53;;;11.50;89.20;;;;;;5048426;28;20203;-70
2021/04/22 07:09:41;;;;;;;6.30;2.47;;;11.60;88.80;;;;;;5050502;28;20195;-70
2021/04/22 07:12:08;;;;;;;5.88;2.88;;;11.60;88.80;;;;;;5050651;28;20554;-70
2021/04/22 07:14:34;;;;;;;6.47;2.92;;;11.60;89.00;;;;;;5050544;28;20209;-70
2021/04/22 07:17:00;;;;;;;6.35;2.80;;;11.70;88.50;;;;;;5045504;28;20195;-70
2021/04/22 07:19:27;;;;;;;5.55;3.00;;;11.80;89.30;;;;;;5043815;28;20265;-70
2021/04/22 07:21:54;;;;;;;5.57;2.58;;;11.90;88.60;;;;;;5043074;28;20218;-69
2021/04/22 07:24:21;;;;;;;6.20;2.40;;;11.90;87.90;;;;;;5041710;28;20199;-70
2021/04/22 07:26:47;;;;;;;4.43;2.03;;;12.00;87.60;;;;;;5050562;28;20524;-70
2021/04/22 07:29:13;;;;;;;7.72;2.70;;;12.10;87.80;;;;;;5049830;28;20231;-70
2021/04/22 07:31:39;;;;;;;5.32;2.10;;;12.10;87.30;;;;;;5040278;28;20210;-71
2021/04/22 07:34:06;;;;;;;7.45;2.60;;;12.10;87.20;;;;;;5044375;28;20195;-72
2021/04/22 07:36:32;;;;;;;7.60;2.55;;;12.20;86.90;;;;;;5037782;28;20191;-72
2021/04/22 07:39:00;;;;;;;4.20;2.30;;;12.20;86.80;;;;;;5035583;28;20188;-71
2021/04/22 07:41:26;;;;;;;3.58;1.92;;;12.30;86.50;;;;;;5035815;28;20200;-71
2021/04/22 07:43:53;;;;;;;4.38;2.10;;;12.30;86.10;;;;;;5049044;28;20199;-70
2021/04/22 07:46:19;;;;;;;4.60;2.55;;;12.40;85.20;;;;;;5035813;28;20210;-70
2021/04/22 07:48:45;;;;;;;1.85;1.52;;;12.40;84.90;;;;;;5041720;28;20198;-70
2021/04/22 07:51:12;;;;;;;5.05;2.63;;;12.50;85.00;;;;;;5050531;28;20187;-70
2021/04/22 07:53:38;;;;;;;6.00;2.10;;;12.70;84.40;;;;;;5032648;28;20242;-70
2021/04/22 07:56:05;;;;;;;4.10;1.80;;;12.80;83.40;;;;;;5043622;28;20182;-70
2021/04/22 07:58:31;;;;;;;4.07;1.60;;;12.90;81.60;;;;;;5050996;28;20289;-70
2021/04/22 08:00:59;;;;;;;4.05;1.80;;;13.00;81.40;;;;;;5049228;28;20553;-70
2021/04/22 08:03:26;;;;;;;5.55;2.28;;;13.20;80.70;;;;;;5045176;28;20642;-70
2021/04/22 08:05:55;;;;;;;8.10;2.00;;;13.30;79.70;;;;;;5040285;28;20219;-70
2021/04/22 08:08:22;;;;;;;3.53;1.77;;;13.40;79.10;;;;;;5031121;28;20558;-70
2021/04/22 08:10:49;;;;;;;4.45;2.25;;;13.50;77.90;;;;;;5040001;28;20198;-70
2021/04/22 08:13:19;;;;;;;3.33;2.15;;;13.50;78.20;;;;;;5049391;28;20206;-70
2021/04/22 08:15:49;;;;;;;2.75;1.60;;;13.50;79.00;;;;;;5046868;28;20187;-70
2021/04/22 08:18:17;;;;;;;3.80;1.85;;;13.60;78.50;;;;;;5050221;28;20183;-70
2021/04/22 08:20:43;;;;;;;4.05;1.85;;;13.60;77.90;;;;;;5049393;28;20237;-70
2021/04/22 08:23:11;;;;;;;5.25;1.80;;;13.70;75.90;;;;;;5041829;28;20206;-70
2021/04/22 08:25:40;;;;;;;4.38;2.08;;;13.70;76.70;;;;;;5047745;28;20222;-70
2021/04/22 08:28:09;;;;;;;3.17;1.73;;;13.60;76.80;;;;;;5037230;28;20284;-70
2021/04/22 08:30:43;;;;;;;9.38;2.80;;;13.40;77.00;;;;;;5037095;28;20186;-70
2021/04/22 08:33:10;;;;;;;6.78;1.80;;;13.40;77.30;;;;;;5052790;28;20204;-70
2021/04/22 08:35:37;;;;;;;4.63;2.13;;;13.50;79.00;;;;;;5048337;28;20661;-70
2021/04/22 08:38:03;;;;;;;3.05;2.10;;;13.60;78.30;;;;;;5036552;28;20207;-70
2021/04/22 08:40:30;;;;;;;5.15;2.58;;;13.60;76.00;;;;;;5053710;28;20336;-70
2021/04/22 08:42:57;;;;;;;2.55;1.60;;;13.70;76.30;;;;;;5053214;28;20195;-70
2021/04/22 08:45:24;;;;;;;3.33;1.90;;;13.70;77.60;;;;;;5051616;28;20693;-70
2021/04/22 08:47:51;;;;;;;4.30;2.22;;;13.60;77.00;;;;;;5052090;28;20198;-70
2021/04/22 08:50:20;;;;;;;9.15;2.72;;;13.60;77.50;;;;;;5053986;28;20215;-70
2021/04/22 08:52:48;;;;;;;5.30;2.10;;;13.70;78.00;;;;;;5037095;28;20203;-70
2021/04/22 08:55:14;;;;;;;2.63;1.70;;;13.80;76.80;;;;;;5037540;28;20214;-70
2021/04/22 08:57:40;;;;;;;7.03;1.80;;;13.90;75.90;;;;;;5051670;28;20194;-70
2021/04/22 09:00:09;;;;;;;3.47;2.35;;;14.00;76.00;;;;;;5045641;28;20195;-70
2021/04/22 09:02:35;;;;;;;4.05;1.80;;;13.90;75.20;;;;;;5046289;28;20203;-70
2021/04/22 09:05:03;;;;;;;3.60;2.25;;;13.80;74.90;;;;;;5048513;28;20230;-70
2021/04/22 09:07:29;;;;;;;4.97;2.20;;;13.80;76.50;;;;;;5050688;28;20203;-70
2021/04/22 09:09:55;;;;;;;3.15;2.50;;;13.80;76.50;;;;;;5041112;28;20635;-70
2021/04/22 09:12:22;;;;;;;2.03;1.55;;;13.80;76.60;;;;;;5053297;28;20203;-70
2021/04/22 09:14:53;;;;;;;4.20;2.42;;;13.80;77.20;;;;;;5046310;28;20668;-70
2021/04/22 09:17:22;;;;;;;5.25;2.05;;;13.80;77.20;;;;;;5033112;28;20513;-70
2021/04/22 09:19:48;;;;;;;7.38;2.38;;;13.80;77.10;;;;;;5037370;28;20195;-70
2021/04/22 09:22:16;;;;;;;7.40;2.58;;;13.80;77.00;;;;;;5052037;28;20210;-70
2021/04/22 09:24:42;;;;;;;3.40;1.55;;;13.90;77.00;;;;;;5047940;28;20582;-70
2021/04/22 09:27:14;;;;;;;3.72;1.90;;;14.00;75.90;;;;;;5051573;28;20198;-70
2021/04/22 09:29:46;;;;;;;4.25;1.88;;;14.10;76.70;;;;;;5045683;28;20188;-70
2021/04/22 09:32:17;;;;;;;2.38;1.60;;;14.10;75.30;;;;;;5035080;28;20191;-70
2021/04/22 09:34:47;;;;;;;6.55;2.63;;;14.20;76.00;;;;;;5050189;28;20646;-70
2021/04/22 09:37:15;;;;;;;3.65;1.70;;;14.30;75.50;;;;;;5052415;28;20207;-70
2021/04/22 09:39:42;;;;;;;5.40;2.45;;;14.30;75.00;;;;;;5049996;28;20221;-70
2021/04/22 09:42:11;;;;;;;4.35;1.83;;;14.30;75.50;;;;;;5031965;28;20207;-70
2021/04/22 09:44:39;;;;;;;4.03;1.60;;;14.40;75.60;;;;;;5042590;28;20206;-70
2021/04/22 09:47:08;;;;;;;8.32;2.15;;;14.30;75.10;;;;;;5051457;28;20202;-70
2021/04/22 09:49:46;;;;;;;3.92;2.97;;;14.30;74.80;;;;;;5037224;28;20196;-74
2021/04/22 09:52:15;;;;;;;2.95;1.63;;;14.30;75.30;;;;;;5048420;28;20225;-71
2021/04/22 09:54:45;;;;;;;2.90;1.70;;;14.40;74.50;;;;;;5028968;28;20200;-73
2021/04/22 09:57:20;;;;;;;5.45;2.08;;;14.40;75.40;;;;;;5047593;28;20693;-72
2021/04/22 09:59:46;;;;;;;5.25;2.08;;;14.40;74.70;;;;;;5048662;28;20190;-71
2021/04/22 10:02:13;;;;;;;5.93;2.03;;;14.40;73.10;;;;;;5043611;28;20209;-72
2021/04/22 10:04:41;;;;;;;5.57;2.15;;;14.40;74.00;;;;;;5037486;28;20207;-72
2021/04/22 10:07:19;;;;;;;2.70;1.60;;;14.40;74.70;;;;;;5036157;28;20849;-72
2021/04/22 10:09:47;;;;;;;6.63;1.98;;;14.50;75.00;;;;;;5040929;28;20210;-72
2021/04/22 10:12:22;;;;;;;7.75;2.47;;;14.50;74.30;;;;;;5032551;28;20289;-71
2021/04/22 10:14:48;;;;;;;2.45;1.90;;;14.50;74.30;;;;;;5042098;28;20222;-71
2021/04/22 10:17:16;;;;;;;2.45;1.73;;;14.50;73.80;;;;;;5047775;28;20226;-72
2021/04/22 10:19:43;;;;;;;6.95;2.97;;;14.50;74.20;;;;;;5045685;28;20196;-72
2021/04/22 10:22:09;;;;;;;4.95;2.85;;;14.50;72.10;;;;;;5038987;28;20278;-72
2021/04/22 10:24:35;;;;;;;4.85;2.05;;;14.50;70.60;;;;;;5044507;28;20195;-72
2021/04/22 10:27:04;;;;;;;1.85;1.63;;;14.50;71.60;;;;;;5031773;28;20223;-72
2021/04/22 10:29:31;;;;;;;3.58;2.08;;;14.50;72.90;;;;;;5037511;28;20202;-72
2021/04/22 10:31:58;;;;;;;4.97;2.38;;;14.60;72.90;;;;;;5038515;28;20199;-72
2021/04/22 10:34:30;;;;;;;6.00;2.22;;;14.60;73.60;;;;;;5038853;28;20199;-72
2021/04/22 10:36:57;;;;;;;5.72;2.17;;;14.60;73.00;;;;;;5036573;28;20566;-72
2021/04/22 10:39:25;;;;;;;6.38;2.22;;;14.60;73.00;;;;;;5051367;28;20314;-72
2021/04/22 10:41:53;;;;;;;7.25;2.40;;;14.60;73.50;;;;;;5050249;28;20214;-72
2021/04/22 10:44:23;;;;;;;6.13;2.00;;;14.60;73.20;;;;;;5054361;28;20198;-71
2021/04/22 10:46:49;;;;;;;6.90;2.45;;;14.60;73.20;;;;;;5032664;28;20544;-72
2021/04/22 10:49:17;;;;;;;6.93;2.55;;;14.60;73.30;;;;;;5056807;28;20213;-71
2021/04/22 10:51:43;;;;;;;5.40;2.30;;;14.60;74.40;;;;;;5061740;28;20194;-76
2021/04/22 10:54:10;;;;;;;2.78;1.60;;;14.60;73.40;;;;;;5038164;28;20207;-71
2021/04/22 10:56:36;;;;;;;10.18;3.20;;;14.60;73.50;;;;;;5041542;28;20187;-70
2021/04/22 10:59:03;;;;;;;19.20;5.28;;;14.60;72.80;;;;;;5042111;28;20250;-70
2021/04/22 11:01:39;;;;;;;14.43;4.00;;;14.60;72.40;;;;;;5039906;28;20194;-70
2021/04/22 11:04:08;;;;;;;12.45;2.67;;;14.50;72.50;;;;;;5043146;28;20191;-71
2021/04/22 11:06:37;;;;;;;4.88;2.70;;;14.50;73.80;;;;;;5039627;28;20215;-71
2021/04/22 11:09:17;;;;;;;8.25;3.22;;;14.60;74.10;;;;;;5043164;28;20305;-71
2021/04/22 11:11:58;;;;;;;5.68;2.38;;;14.50;72.90;;;;;;5049281;28;20635;-71
2021/04/22 11:14:36;;;;;;;8.40;2.88;;;14.50;72.30;;;;;;5041011;28;20646;-70
2021/04/22 11:17:04;;;;;;;5.97;2.22;;;14.50;72.60;;;;;;5046527;28;20199;-71
2021/04/22 11:19:36;;;;;;;8.88;2.92;;;14.60;73.20;;;;;;5042643;28;20273;-71
2021/04/22 11:22:14;;;;;;;6.38;2.75;;;14.60;73.00;;;;;;5048923;28;20199;-71
2021/04/22 11:24:43;;;;;;;5.63;3.10;;;14.60;73.30;;;;;;5047508;28;20555;-70
2021/04/22 11:27:12;;;;;;;5.90;2.40;;;14.60;73.50;;;;;;5039266;28;20694;-70
2021/04/22 11:29:41;;;;;;;7.35;2.20;;;14.60;73.20;;;;;;5050568;28;20191;-70
2021/04/22 11:32:26;;;;;;;6.07;2.90;;;14.60;72.10;;;;;;5050182;28;20199;-70
2021/04/22 11:34:57;;;;;;;5.95;2.80;;;14.60;72.30;;;;;;5034380;28;20195;-70
2021/04/22 11:37:25;;;;;;;5.80;2.97;;;14.60;72.20;;;;;;5043188;28;20210;-70
2021/04/22 11:39:52;;;;;;;5.78;2.70;;;14.60;73.10;;;;;;5049363;28;20203;-70
2021/04/22 11:42:19;;;;;;;5.85;2.20;;;14.60;72.60;;;;;;5041143;28;20202;-70
2021/04/22 11:44:49;;;;;;;3.28;2.35;;;14.60;72.80;;;;;;5040409;28;20195;-70
2021/04/22 11:47:27;;;;;;;4.95;2.35;;;14.70;72.30;;;;;;5046690;28;20191;-70
2021/04/22 11:50:08;;;;;;;4.93;2.55;;;14.60;72.70;;;;;;5047147;28;20206;-70
2021/04/22 11:52:46;;;;;;;7.40;3.28;;;14.70;71.70;;;;;;5036213;28;20196;-70
2021/04/22 11:55:17;;;;;;;4.85;3.15;;;14.60;70.80;;;;;;5037636;28;20251;-71
2021/04/22 11:57:55;;;;;;;5.10;3.33;;;14.60;71.10;;;;;;5043543;28;20190;-70
2021/04/22 12:00:24;;;;;;;6.47;3.00;;;14.60;72.50;;;;;;5035375;28;20748;-70
2021/04/22 12:02:51;;;;;;;7.95;2.70;;;14.60;72.90;;;;;;5049134;28;20651;-70
2021/04/22 12:05:19;;;;;;;4.55;3.40;;;14.70;72.90;;;;;;5048051;28;20309;-70
2021/04/22 12:07:54;;;;;;;4.25;2.50;;;14.70;72.00;;;;;;5033576;28;20579;-71
2021/04/22 12:10:20;;;;;;;4.60;3.17;;;14.70;72.50;;;;;;5039735;28;20555;-71
2021/04/22 12:12:47;;;;;;;6.75;2.55;;;14.70;72.70;;;;;;5039915;28;20646;-71
2021/04/22 12:15:17;;;;;;;5.28;2.65;;;14.70;72.50;;;;;;5037350;28;20195;-71
2021/04/22 12:17:45;;;;;;;4.95;2.40;;;14.70;72.90;;;;;;5045208;28;20677;-71
2021/04/22 12:20:13;;;;;;;5.60;2.97;;;14.70;73.40;;;;;;5049759;28;20195;-71
2021/04/22 12:22:41;;;;;;;8.40;3.15;;;14.70;72.90;;;;;;5044510;28;20210;-71
2021/04/22 12:25:13;;;;;;;7.15;2.85;;;14.70;73.20;;;;;;5043109;28;20248;-71
2021/04/22 12:27:46;;;;;;;6.13;3.45;;;14.70;72.50;;;;;;5047457;28;20226;-71
2021/04/22 12:30:19;;;;;;;5.03;2.65;;;14.70;72.00;;;;;;5045304;28;20219;-71
2021/04/22 12:32:54;;;;;;;4.13;2.83;;;14.70;72.10;;;;;;5032471;28;20206;-71
2021/04/22 12:35:24;;;;;;;3.58;2.28;;;14.70;72.00;;;;;;5037347;28;20202;-71
2021/04/22 12:37:51;;;;;;;4.90;2.85;;;14.70;72.50;;;;;;5042173;28;20697;-72
2021/04/22 12:40:18;;;;;;;5.60;2.53;;;14.70;71.90;;;;;;5045826;28;20190;-71
2021/04/22 12:42:45;;;;;;;3.85;2.13;;;14.70;71.70;;;;;;5037811;28;20210;-71
2021/04/22 12:45:15;;;;;;;3.70;2.45;;;14.70;72.20;;;;;;5044472;28;20203;-71
2021/04/22 12:47:44;;;;;;;4.43;3.03;;;14.70;71.00;;;;;;5040570;28;20249;-71